createdAt,value
2022-11-05T00:00:53.429Z,3.65
2022-11-05T00:03:39.527Z,3.38
2022-11-05T00:06:29.528Z,3.22
2022-11-05T00:09:15.615Z,2.95
2022-11-05T00:12:01.373Z,3.97
2022-11-05T00:14:47.778Z,2.90
2022-11-05T00:17:15.112Z,3.72
2022-11-05T00:19:42.514Z,3.20
2022-11-05T00:22:28.336Z,4.63
2022-11-05T00:25:14.293Z,5.15
2022-11-05T00:27:41.755Z,7.38
2022-11-05T00:30:09.949Z,4.07
2022-11-05T00:32:37.454Z,4.60
2022-11-05T00:35:06.983Z,6.15
2022-11-05T00:37:34.488Z,5.20
2022-11-05T00:40:02.012Z,6.88
2022-11-05T00:42:49.315Z,6.28
2022-11-05T00:45:16.994Z,5.88
2022-11-05T00:48:02.707Z,5.47
2022-11-05T00:50:30.414Z,7.75
2022-11-05T00:53:00.702Z,6.22
2022-11-05T00:55:34.912Z,5.57
2022-11-05T00:58:03.697Z,8.00
2022-11-05T01:00:32.318Z,8.55
2022-11-05T01:03:01.722Z,6.40
2022-11-05T01:05:30.340Z,6.18
2022-11-05T01:07:58.175Z,8.57
2022-11-05T01:10:26.251Z,8.32
2022-11-05T01:12:53.636Z,8.23
2022-11-05T01:15:21.281Z,7.88
2022-11-05T01:17:49.134Z,5.80
2022-11-05T01:20:16.878Z,6.78
2022-11-05T01:22:44.394Z,7.40
2022-11-05T01:25:11.822Z,5.68
2022-11-05T01:27:39.742Z,5.07
2022-11-05T01:30:08.926Z,5.10
2022-11-05T01:32:37.570Z,5.15
2022-11-05T01:35:06.743Z,6.72
2022-11-05T01:37:35.658Z,5.95
2022-11-05T01:40:04.278Z,5.40
2022-11-05T01:42:32.750Z,4.82
2022-11-05T01:45:09.247Z,7.57
2022-11-05T01:47:39.839Z,7.10
2022-11-05T01:50:40.847Z,11.68
2022-11-05T01:53:37.635Z,4.93
2022-11-05T01:56:13.759Z,4.38
2022-11-05T01:58:53.547Z,5.05
2022-11-05T02:01:21.165Z,3.67
2022-11-05T02:03:50.954Z,3.88
2022-11-05T02:06:19.907Z,4.60
2022-11-05T02:09:07.985Z,5.90
2022-11-05T02:11:35.469Z,3.13
2022-11-05T02:14:03.180Z,4.20
2022-11-05T02:17:02.710Z,3.17
2022-11-05T02:19:54.003Z,3.80
2022-11-05T02:22:58.680Z,4.10
2022-11-05T02:25:57.441Z,4.65
2022-11-05T02:28:39.843Z,4.47
2022-11-05T02:31:27.253Z,4.10
2022-11-05T02:34:19.221Z,4.53
2022-11-05T02:36:49.107Z,4.35
2022-11-05T02:39:27.855Z,3.50
2022-11-05T02:42:24.625Z,5.47
2022-11-05T02:45:22.707Z,3.55
2022-11-05T02:48:14.477Z,3.40
2022-11-05T02:50:55.772Z,4.82
2022-11-05T02:53:26.052Z,8.48
2022-11-05T02:55:59.787Z,6.32
2022-11-05T02:58:30.829Z,6.75
2022-11-05T03:00:59.441Z,7.30
2022-11-05T03:03:33.982Z,4.68
2022-11-05T03:06:25.904Z,5.25
2022-11-05T03:09:02.756Z,5.03
2022-11-05T03:11:33.067Z,4.45
2022-11-05T03:14:13.573Z,7.70
2022-11-05T03:16:52.114Z,4.32
2022-11-05T03:19:32.848Z,4.88
2022-11-05T03:22:08.677Z,4.20
2022-11-05T03:24:39.431Z,3.30
2022-11-05T03:27:12.899Z,5.13
2022-11-05T03:29:47.773Z,4.10
2022-11-05T03:32:17.729Z,4.05
2022-11-05T03:34:59.100Z,3.88
2022-11-05T03:37:32.963Z,4.82
2022-11-05T03:42:36.168Z,4.18
2022-11-05T03:45:10.934Z,3.38
2022-11-05T03:47:43.447Z,4.63
2022-11-05T03:50:22.775Z,5.55
2022-11-05T03:52:59.461Z,3.70
2022-11-05T03:55:34.235Z,6.65
2022-11-05T03:58:04.468Z,4.40
2022-11-05T04:00:32.384Z,4.72
2022-11-05T04:02:59.822Z,5.00
2022-11-05T04:05:27.305Z,8.10
2022-11-05T04:08:14.493Z,5.57
2022-11-05T04:11:00.750Z,4.85
2022-11-05T04:13:28.868Z,4.28
2022-11-05T04:16:15.648Z,5.95
2022-11-05T04:18:43.501Z,5.50
2022-11-05T04:21:30.161Z,5.40
2022-11-05T04:24:09.989Z,6.57
2022-11-05T04:26:40.282Z,4.70
2022-11-05T04:29:27.119Z,4.35
2022-11-05T04:31:54.970Z,4.22
2022-11-05T04:34:22.782Z,4.68
2022-11-05T04:36:51.656Z,4.28
2022-11-05T04:39:20.313Z,4.75
2022-11-05T04:41:50.798Z,5.10
2022-11-05T04:44:18.169Z,5.05
2022-11-05T04:46:45.530Z,6.45
2022-11-05T04:49:12.995Z,4.63
2022-11-05T04:51:40.319Z,15.07
2022-11-05T04:54:07.790Z,4.65
2022-11-05T04:56:35.192Z,6.55
2022-11-05T04:59:02.523Z,6.10
2022-11-05T05:01:30.001Z,5.25
2022-11-05T05:03:57.583Z,5.43
2022-11-05T05:06:25.108Z,6.18
2022-11-05T05:08:52.623Z,15.23
2022-11-05T05:11:21.851Z,4.60
2022-11-05T05:13:49.781Z,7.25
2022-11-05T05:16:27.247Z,4.28
2022-11-05T05:18:55.011Z,5.13
2022-11-05T05:21:42.422Z,5.00
2022-11-05T05:24:18.879Z,4.75
2022-11-05T05:26:48.813Z,15.68
2022-11-05T05:29:16.942Z,4.25
2022-11-05T05:31:44.759Z,4.15
2022-11-05T05:34:13.220Z,3.72
2022-11-05T05:36:40.967Z,4.15
2022-11-05T05:39:11.128Z,5.68
2022-11-05T05:41:38.908Z,5.18
2022-11-05T05:44:06.890Z,4.15
2022-11-05T05:46:34.354Z,4.03
2022-11-05T05:49:01.732Z,2.80
2022-11-05T05:51:29.109Z,3.83
2022-11-05T05:53:56.448Z,3.90
2022-11-05T05:56:23.815Z,4.47
2022-11-05T05:58:51.183Z,3.30
2022-11-05T06:01:20.109Z,3.80
2022-11-05T06:03:48.755Z,3.78
2022-11-05T06:06:21.319Z,5.00
2022-11-05T06:08:49.268Z,7.72
2022-11-05T06:11:16.765Z,4.68
2022-11-05T06:13:44.352Z,4.70
2022-11-05T06:16:11.779Z,4.53
2022-11-05T06:18:39.094Z,3.67
2022-11-05T06:21:12.210Z,4.85
2022-11-05T06:23:41.425Z,8.77
2022-11-05T06:26:14.924Z,5.85
2022-11-05T06:28:42.703Z,5.32
2022-11-05T06:31:11.184Z,7.68
2022-11-05T06:33:39.428Z,4.00
2022-11-05T06:36:08.316Z,4.13
2022-11-05T06:38:38.423Z,6.85
2022-11-05T06:41:10.091Z,4.50
2022-11-05T06:43:38.474Z,5.93
2022-11-05T06:46:06.679Z,4.80
2022-11-05T06:48:34.485Z,5.55
2022-11-05T06:51:02.324Z,6.75
2022-11-05T06:53:30.359Z,7.13
2022-11-05T06:55:57.789Z,4.50
2022-11-05T06:58:25.157Z,4.38
2022-11-05T07:00:52.615Z,5.13
2022-11-05T07:03:20.018Z,5.25
2022-11-05T07:05:49.778Z,5.45
2022-11-05T07:08:17.583Z,5.25
2022-11-05T07:10:45.263Z,4.55
2022-11-05T07:13:13.086Z,5.90
2022-11-05T07:15:40.798Z,4.22
2022-11-05T07:18:09.650Z,4.55
2022-11-05T07:20:37.143Z,5.63
2022-11-05T07:23:12.158Z,5.63
2022-11-05T07:25:42.110Z,4.90
2022-11-05T07:28:10.613Z,6.43
2022-11-05T07:30:38.295Z,6.20
2022-11-05T07:33:05.736Z,4.78
2022-11-05T07:35:33.092Z,4.97
2022-11-05T07:38:00.540Z,3.75
2022-11-05T07:40:29.699Z,5.10
2022-11-05T07:43:01.850Z,4.32
2022-11-05T07:45:31.269Z,4.47
2022-11-05T07:48:02.731Z,4.85
2022-11-05T07:50:32.761Z,4.72
2022-11-05T07:53:05.584Z,4.28
2022-11-05T07:55:34.159Z,4.07
2022-11-05T07:58:01.832Z,4.25
2022-11-05T08:00:31.177Z,3.42
2022-11-05T08:03:08.426Z,2.80
2022-11-05T08:05:38.480Z,4.40
2022-11-05T08:08:08.323Z,3.42
2022-11-05T08:10:36.955Z,4.32
2022-11-05T08:13:05.076Z,4.85
2022-11-05T08:15:32.792Z,4.75
2022-11-05T08:18:05.786Z,3.45
2022-11-05T08:20:34.052Z,3.28
2022-11-05T08:23:01.749Z,3.67
2022-11-05T08:25:29.217Z,4.45
2022-11-05T08:27:58.882Z,4.57
2022-11-05T08:30:26.861Z,5.88
2022-11-05T08:32:58.950Z,3.95
2022-11-05T08:35:27.448Z,4.38
2022-11-05T08:37:59.245Z,10.90
2022-11-05T08:40:27.395Z,4.22
2022-11-05T08:42:58.061Z,4.80
2022-11-05T08:45:27.124Z,3.47
2022-11-05T08:48:10.492Z,3.75
2022-11-05T08:53:06.744Z,4.35
2022-11-05T08:55:34.227Z,3.30
2022-11-05T08:58:03.883Z,5.30
2022-11-05T09:00:35.043Z,4.50
2022-11-05T09:03:04.125Z,3.92
2022-11-05T09:05:37.839Z,4.85
2022-11-05T09:08:10.499Z,3.63
2022-11-05T09:10:38.361Z,4.03
2022-11-05T09:13:05.803Z,2.40
2022-11-05T09:15:35.735Z,2.95
2022-11-05T09:18:05.859Z,3.28
2022-11-05T09:20:33.533Z,3.40
2022-11-05T09:23:01.127Z,3.63
2022-11-05T09:25:28.851Z,3.08
2022-11-05T09:28:17.113Z,3.38
2022-11-05T09:30:47.565Z,3.50
2022-11-05T09:33:16.264Z,4.72
2022-11-05T09:35:43.819Z,3.38
2022-11-05T09:38:11.513Z,3.22
2022-11-05T09:41:00.596Z,3.90
2022-11-05T09:43:34.859Z,3.42
2022-11-05T09:46:12.044Z,6.68
2022-11-05T09:48:41.329Z,3.05
2022-11-05T09:51:12.505Z,4.13
2022-11-05T09:53:41.607Z,3.15
2022-11-05T09:56:26.912Z,5.93
2022-11-05T09:59:00.304Z,4.93
2022-11-05T10:01:37.583Z,4.18
2022-11-05T10:04:15.696Z,3.60
2022-11-05T10:06:55.642Z,4.10
2022-11-05T10:09:48.780Z,4.50
2022-11-05T10:12:34.711Z,3.92
2022-11-05T10:15:18.827Z,4.25
2022-11-05T10:18:10.700Z,5.10
2022-11-05T10:20:39.806Z,7.03
2022-11-05T10:23:19.576Z,5.40
2022-11-05T10:26:09.497Z,5.40
2022-11-05T10:28:37.001Z,10.07
2022-11-05T10:31:08.793Z,5.18
2022-11-05T10:33:44.358Z,4.18
2022-11-05T10:36:45.178Z,4.82
2022-11-05T10:39:18.090Z,3.75
2022-11-05T10:41:59.806Z,6.50
2022-11-05T10:44:44.353Z,4.03
2022-11-05T10:47:32.833Z,6.22
2022-11-05T10:50:03.986Z,4.28
2022-11-05T10:52:36.013Z,3.47
2022-11-05T10:55:11.650Z,4.82
2022-11-05T10:57:41.243Z,3.80
2022-11-05T11:00:17.319Z,4.85
2022-11-05T11:02:49.729Z,5.25
2022-11-05T11:05:40.614Z,4.20
2022-11-05T11:08:11.792Z,4.97
2022-11-05T11:11:08.050Z,4.55
2022-11-05T11:13:59.456Z,5.10
2022-11-05T11:16:29.473Z,4.30
2022-11-05T11:19:01.691Z,4.32
2022-11-05T11:21:31.060Z,4.05
2022-11-05T11:24:07.075Z,3.35
2022-11-05T11:26:38.744Z,5.15
2022-11-05T11:29:14.646Z,5.13
2022-11-05T11:31:44.408Z,5.68
2022-11-05T11:34:29.184Z,5.00
2022-11-05T11:37:07.378Z,3.50
2022-11-05T11:39:36.025Z,5.90
2022-11-05T11:42:16.243Z,4.78
2022-11-05T11:44:47.298Z,3.08
2022-11-05T11:47:18.781Z,5.93
2022-11-05T11:49:55.025Z,3.33
2022-11-05T11:52:33.095Z,3.63
2022-11-05T11:55:12.675Z,3.20
2022-11-05T11:57:47.533Z,4.00
2022-11-05T12:00:17.572Z,2.80
2022-11-05T12:03:06.054Z,3.65
2022-11-05T12:06:03.264Z,4.10
2022-11-05T12:08:45.568Z,4.45
2022-11-05T12:11:19.061Z,4.28
2022-11-05T12:13:58.571Z,4.40
2022-11-05T14:05:04.367Z,3.42
2022-11-05T14:07:38.326Z,5.05
2022-11-05T14:10:23.940Z,6.55
2022-11-05T14:12:54.788Z,5.38
2022-11-05T14:15:30.074Z,4.28
2022-11-05T14:18:35.688Z,7.03
2022-11-05T14:21:05.526Z,5.13
2022-11-05T14:23:39.562Z,8.93
2022-11-05T14:26:19.230Z,3.90
2022-11-05T14:29:03.135Z,4.35
2022-11-05T14:31:54.423Z,11.50
2022-11-05T14:34:41.430Z,7.05
2022-11-05T14:37:12.060Z,4.15
2022-11-05T14:39:40.764Z,5.15
2022-11-05T14:42:15.329Z,7.13
2022-11-05T14:45:13.775Z,4.88
2022-11-05T14:47:50.240Z,6.15
2022-11-05T14:50:47.025Z,5.07
2022-11-05T14:53:38.261Z,10.90
2022-11-05T14:56:12.577Z,4.57
2022-11-05T14:58:41.613Z,4.65
2022-11-05T15:01:35.173Z,5.28
2022-11-05T15:04:06.289Z,5.53
2022-11-05T15:06:36.624Z,5.18
2022-11-05T15:09:04.015Z,4.50
2022-11-05T15:11:41.147Z,5.35
2022-11-05T15:15:01.124Z,4.78
2022-11-05T15:17:41.230Z,5.15
2022-11-05T15:20:14.822Z,4.63
2022-11-05T15:22:45.856Z,4.53
2022-11-05T15:25:28.575Z,7.00
2022-11-05T15:28:10.900Z,6.63
2022-11-05T15:30:38.509Z,4.63
2022-11-05T15:33:19.007Z,28.50
2022-11-05T15:35:46.882Z,6.95
2022-11-05T15:38:34.397Z,7.93
2022-11-05T15:41:27.365Z,7.25
2022-11-05T15:43:54.769Z,11.93
2022-11-05T15:46:29.737Z,8.45
2022-11-05T15:49:05.276Z,6.22
2022-11-05T15:51:33.440Z,5.00
2022-11-05T15:56:55.931Z,5.38
2022-11-05T15:59:25.975Z,5.25
2022-11-05T16:02:01.344Z,4.60
2022-11-05T16:04:32.005Z,5.03
2022-11-05T16:07:10.201Z,5.20
2022-11-05T16:09:41.413Z,7.25
2022-11-05T16:12:26.669Z,5.07
2022-11-05T16:15:06.460Z,5.45
2022-11-05T16:17:55.615Z,6.07
2022-11-05T16:20:30.371Z,6.07
2022-11-05T16:23:25.057Z,19.40
2022-11-05T16:25:53.984Z,5.50
2022-11-05T16:28:27.709Z,5.13
2022-11-05T16:31:01.423Z,7.63
2022-11-05T16:36:01.884Z,9.52
2022-11-05T16:38:30.400Z,9.05
2022-11-05T16:40:59.210Z,5.03
2022-11-05T16:43:27.112Z,12.15
2022-11-05T16:45:57.691Z,71.40
2022-11-05T16:48:26.045Z,54.30
2022-11-05T16:50:54.559Z,58.17
2022-11-05T16:53:22.033Z,93.05
2022-11-05T16:55:50.188Z,65.50
2022-11-05T16:58:26.211Z,57.95
2022-11-05T17:01:01.595Z,23.35
2022-11-05T17:03:29.106Z,8.20
2022-11-05T17:05:56.778Z,41.28
2022-11-05T17:08:24.228Z,9.63
2022-11-05T17:10:51.636Z,9.32
2022-11-05T17:13:20.542Z,10.30
2022-11-05T17:15:50.224Z,19.90
2022-11-05T17:18:19.308Z,8.18
2022-11-05T17:20:52.710Z,13.23
2022-11-05T17:23:23.111Z,44.50
2022-11-05T17:25:56.791Z,5.00
2022-11-05T17:28:24.361Z,6.47
2022-11-05T17:30:54.501Z,7.90
2022-11-05T17:33:23.113Z,15.45
2022-11-05T17:35:51.401Z,28.80
2022-11-05T17:38:20.894Z,5.38
2022-11-05T17:40:48.739Z,14.73
2022-11-05T17:43:16.682Z,14.75
2022-11-05T17:45:46.233Z,8.10
2022-11-05T17:48:15.177Z,6.78
2022-11-05T17:50:46.387Z,7.45
2022-11-05T17:53:16.424Z,5.40
2022-11-05T17:55:45.337Z,8.38
2022-11-05T17:58:12.928Z,6.28
2022-11-05T18:00:41.488Z,9.15
2022-11-05T18:03:10.819Z,7.38
2022-11-05T18:05:40.254Z,6.05
2022-11-05T18:08:08.516Z,12.38
2022-11-05T18:10:40.965Z,23.85
2022-11-05T18:13:08.481Z,12.75
2022-11-05T18:15:38.268Z,12.25
2022-11-05T18:18:05.835Z,13.15
2022-11-05T18:20:33.606Z,7.00
2022-11-05T18:23:02.584Z,12.15
2022-11-05T18:25:30.122Z,11.73
2022-11-05T18:27:57.593Z,29.30
2022-11-05T18:30:25.177Z,7.00
2022-11-05T18:32:52.887Z,8.95
2022-11-05T18:35:21.046Z,7.53
2022-11-05T18:37:48.641Z,8.77
2022-11-05T18:40:16.154Z,11.85
2022-11-05T18:42:43.543Z,27.33
2022-11-05T18:45:11.627Z,7.35
2022-11-05T18:47:39.058Z,27.90
2022-11-05T18:50:08.117Z,6.82
2022-11-05T18:52:35.814Z,11.18
2022-11-05T18:55:03.564Z,7.38
2022-11-05T18:57:33.352Z,7.45
2022-11-05T19:00:00.873Z,9.02
2022-11-05T19:02:30.274Z,8.18
2022-11-05T19:05:27.317Z,6.43
2022-11-05T19:07:45.250Z,8.52
2022-11-05T19:10:12.669Z,8.57
2022-11-05T19:12:40.911Z,7.72
2022-11-05T19:15:09.387Z,7.35
2022-11-05T19:17:38.508Z,7.20
2022-11-05T19:20:07.135Z,7.10
2022-11-05T19:22:34.574Z,8.48
2022-11-05T19:25:02.397Z,8.05
2022-11-05T19:27:31.059Z,12.73
2022-11-05T19:29:58.498Z,8.98
2022-11-05T19:32:26.034Z,8.45
2022-11-05T19:34:53.587Z,8.20
2022-11-05T19:37:21.095Z,8.57
2022-11-05T19:39:48.629Z,7.68
2022-11-05T19:42:16.081Z,9.60
2022-11-05T19:44:44.284Z,8.38
2022-11-05T19:47:12.537Z,8.27
2022-11-05T19:49:42.195Z,8.70
2022-11-05T19:52:09.599Z,8.82
2022-11-05T19:54:37.938Z,6.82
2022-11-05T19:57:06.655Z,7.78
2022-11-05T19:59:35.217Z,7.03
2022-11-05T20:02:02.749Z,7.70
2022-11-05T20:04:30.295Z,8.20
2022-11-05T20:06:59.520Z,9.88
2022-11-05T20:09:27.263Z,8.07
2022-11-05T20:11:56.683Z,9.55
2022-11-05T20:14:25.667Z,7.65
2022-11-05T20:16:53.800Z,9.50
2022-11-05T20:19:22.653Z,8.52
2022-11-05T20:21:50.294Z,9.43
2022-11-05T20:24:24.275Z,8.77
2022-11-05T20:26:54.620Z,7.63
2022-11-05T20:29:22.700Z,7.15
2022-11-05T20:31:50.710Z,7.18
2022-11-05T20:34:18.058Z,7.72
2022-11-05T20:36:45.580Z,8.52
2022-11-05T20:39:13.053Z,7.80
2022-11-05T20:41:40.474Z,7.18
2022-11-05T20:44:07.930Z,7.07
2022-11-05T20:46:35.303Z,8.45
2022-11-05T20:49:02.742Z,7.38
2022-11-05T20:51:30.187Z,8.57
2022-11-05T20:53:59.603Z,5.57
2022-11-05T20:56:34.881Z,6.63
2022-11-05T20:59:02.922Z,6.65
2022-11-05T21:01:33.144Z,6.45
2022-11-05T21:04:01.000Z,5.55
2022-11-05T21:06:28.524Z,5.80
2022-11-05T21:08:56.080Z,4.20
2022-11-05T21:11:23.871Z,5.10
2022-11-05T21:13:51.289Z,4.55
2022-11-05T21:16:20.060Z,5.72
2022-11-05T21:18:48.194Z,4.63
2022-11-05T21:21:20.557Z,4.25
2022-11-05T21:23:48.365Z,6.28
2022-11-05T21:26:17.096Z,24.58
2022-11-05T21:28:44.546Z,3.58
2022-11-05T21:31:12.043Z,4.53
2022-11-05T21:33:39.627Z,4.15
2022-11-05T21:36:16.103Z,3.95
2022-11-05T21:38:43.563Z,4.63
2022-11-05T21:41:12.573Z,4.38
2022-11-05T21:43:41.927Z,3.25
2022-11-05T21:46:12.872Z,3.58
2022-11-05T21:48:40.479Z,2.75
2022-11-05T21:51:26.622Z,2.88
2022-11-05T21:54:12.422Z,3.95
2022-11-05T21:56:58.147Z,4.35
2022-11-05T21:59:44.313Z,3.65
2022-11-05T22:02:13.597Z,2.90
2022-11-05T22:04:43.694Z,3.55
2022-11-05T22:07:14.413Z,3.00
2022-11-05T22:09:42.255Z,2.28
2022-11-05T22:12:10.331Z,2.22
2022-11-05T22:14:37.865Z,2.45
2022-11-05T22:17:06.343Z,2.30
2022-11-05T22:19:34.412Z,2.47
2022-11-05T22:22:02.083Z,1.98
2022-11-05T22:24:30.816Z,2.20
2022-11-05T22:27:04.793Z,2.10
2022-11-05T22:29:32.669Z,2.22
2022-11-05T22:32:00.115Z,2.22
2022-11-05T22:34:27.685Z,2.45
2022-11-05T22:36:55.810Z,3.58
2022-11-05T22:39:23.264Z,2.25
2022-11-05T22:41:55.589Z,2.10
2022-11-05T22:44:24.390Z,2.72
2022-11-05T22:46:52.153Z,1.95
2022-11-05T22:49:19.643Z,1.95
2022-11-05T22:51:47.078Z,1.80
2022-11-05T22:54:14.558Z,1.40
2022-11-05T22:56:42.962Z,2.08
2022-11-05T22:59:15.922Z,1.88
2022-11-05T23:01:44.785Z,1.90
2022-11-05T23:04:13.448Z,2.03
2022-11-05T23:06:59.655Z,1.27
2022-11-05T23:09:53.533Z,2.22
2022-11-05T23:12:28.027Z,3.15
2022-11-05T23:14:57.879Z,1.80
2022-11-05T23:17:45.205Z,1.50
2022-11-05T23:20:34.961Z,1.45
2022-11-05T23:23:21.183Z,1.98
2022-11-05T23:25:49.306Z,1.10
2022-11-05T23:28:21.875Z,1.52
2022-11-05T23:31:07.703Z,2.67
2022-11-05T23:33:35.710Z,1.33
2022-11-05T23:36:22.360Z,1.63
2022-11-05T23:38:49.732Z,3.63
2022-11-05T23:41:35.259Z,2.17
2022-11-05T23:44:21.171Z,1.20
2022-11-05T23:47:06.912Z,1.77
2022-11-05T23:49:34.307Z,1.20
2022-11-05T23:52:01.671Z,1.38
2022-11-05T23:54:29.708Z,1.23
2022-11-05T23:56:57.031Z,1.23
2022-11-05T23:59:24.442Z,1.73
